Time;durP1;ratioP1;P1;durP2;ratioP2;P2;SDS_P1;SDS_P2;PMS_P1;PMS_P2;Temp;Humidity;BMP_temperature;BMP_pressure;BME280_temperature;BME280_humidity;BME280_pressure;Samples;Min_cycle;Max_cycle;Signal;HPM_P1;HPM_P2
2021/07/15 00:00:31;;;;;;;58.17;2.50;;;16.80;1.00;;;;;;5052860;28;20447;-73
2021/07/15 00:03:00;;;;;;;57.97;2.47;;;16.60;1.00;;;;;;5052284;28;21041;-74
2021/07/15 00:05:29;;;;;;;58.30;2.70;;;16.50;1.00;;;;;;5052569;28;21016;-74
2021/07/15 00:07:57;;;;;;;58.27;2.60;;;16.40;1.00;;;;;;5052707;28;20609;-74
2021/07/15 00:10:29;;;;;;;58.00;2.40;;;16.20;1.00;;;;;;5052472;28;20487;-74
2021/07/15 00:12:56;;;;;;;58.03;2.40;;;16.10;1.00;;;;;;5052146;28;20572;-74
2021/07/15 00:15:26;;;;;;;58.13;2.50;;;16.10;1.00;;;;;;5052325;28;20557;-74
2021/07/15 00:17:54;;;;;;;58.20;2.30;;;16.10;1.00;;;;;;5052485;28;20533;-74
2021/07/15 00:20:21;;;;;;;58.27;2.40;;;16.00;1.00;;;;;;5051771;28;20458;-74
2021/07/15 00:22:48;;;;;;;58.17;2.50;;;16.00;1.40;;;;;;5051958;28;20533;-74
2021/07/15 00:25:20;;;;;;;58.27;2.60;;;16.00;11.70;;;;;;5052455;28;20466;-74
2021/07/15 00:27:48;;;;;;;57.97;2.30;;;16.00;22.40;;;;;;5052510;28;20491;-74
2021/07/15 00:30:16;;;;;;;58.07;2.43;;;16.00;30.00;;;;;;5052283;28;20841;-74
2021/07/15 00:32:43;;;;;;;57.97;2.40;;;16.00;46.10;;;;;;5051906;28;20585;-74
2021/07/15 00:35:11;;;;;;;58.00;2.40;;;16.00;51.70;;;;;;5052039;28;20471;-74
2021/07/15 00:37:38;;;;;;;57.97;2.40;;;16.00;60.40;;;;;;5051949;28;20455;-74
2021/07/15 00:40:07;;;;;;;58.07;2.40;;;16.00;65.00;;;;;;5052035;28;20450;-74
2021/07/15 00:42:36;;;;;;;57.93;2.40;;;16.00;64.20;;;;;;5051798;28;20527;-74
2021/07/15 00:45:04;;;;;;;58.10;2.53;;;16.00;68.00;;;;;;5051941;28;20475;-73
2021/07/15 00:47:31;;;;;;;58.33;2.40;;;15.90;69.40;;;;;;5051903;28;20462;-73
2021/07/15 00:49:57;;;;;;;58.13;2.50;;;15.90;70.40;;;;;;5051822;28;20540;-74
2021/07/15 00:52:25;;;;;;;58.07;2.40;;;15.90;75.20;;;;;;5051738;28;20537;-74
2021/07/15 00:54:52;;;;;;;58.07;2.70;;;15.90;78.30;;;;;;5051730;28;21009;-74
2021/07/15 00:57:20;;;;;;;57.83;2.47;;;15.90;77.80;;;;;;5051798;28;20941;-73
2021/07/15 00:59:50;;;;;;;58.07;2.50;;;15.80;75.30;;;;;;5051847;28;20456;-73
2021/07/15 01:02:17;;;;;;;57.93;2.40;;;15.80;69.90;;;;;;5051484;28;20449;-73
2021/07/15 01:04:44;;;;;;;58.10;2.47;;;15.70;68.40;;;;;;5051508;28;20680;-73
2021/07/15 01:07:10;;;;;;;58.03;2.60;;;15.60;63.20;;;;;;5051873;28;20481;-73
2021/07/15 01:09:38;;;;;;;58.17;2.60;;;15.50;63.30;;;;;;5051802;28;20554;-73
2021/07/15 01:12:17;;;;;;;58.17;2.60;;;15.50;65.10;;;;;;5051485;28;20528;-73
2021/07/15 01:14:55;;;;;;;58.13;2.60;;;15.50;64.60;;;;;;5051486;28;20484;-73
2021/07/15 01:17:29;;;;;;;58.17;2.60;;;15.50;64.00;;;;;;5051847;28;20540;-73
2021/07/15 01:20:44;;;;;;;58.03;2.40;;;15.50;65.50;;;;;;5051560;28;20456;-73
2021/07/15 01:23:30;;;;;;;58.37;2.60;;;15.50;66.50;;;;;;5009311;28;20886;-73
2021/07/15 01:26:10;;;;;;;57.93;2.47;;;15.50;68.30;;;;;;5047192;28;20548;-73
2021/07/15 01:29:11;;;;;;;58.17;2.40;;;15.50;66.30;;;;;;5051411;28;20527;-73
2021/07/15 01:31:42;;;;;;;58.17;2.50;;;15.50;65.90;;;;;;5051603;28;20975;-73
2021/07/15 01:34:12;;;;;;;58.27;2.70;;;15.50;67.10;;;;;;5055595;28;20933;-73
2021/07/15 01:36:42;;;;;;;58.40;2.70;;;15.50;67.30;;;;;;5055705;28;20874;-73
2021/07/15 01:39:11;;;;;;;58.20;2.50;;;15.50;65.50;;;;;;5055809;28;20489;-73
2021/07/15 01:41:41;;;;;;;58.23;2.60;;;15.50;66.00;;;;;;5055119;28;20453;-74
2021/07/15 01:44:11;;;;;;;58.07;2.50;;;15.50;66.30;;;;;;5055241;28;20548;-73
2021/07/15 01:46:40;;;;;;;58.17;2.60;;;15.50;66.70;;;;;;5055607;28;20450;-73
2021/07/15 01:49:07;;;;;;;57.97;2.60;;;15.50;67.50;;;;;;5055173;28;20450;-73
2021/07/15 01:51:36;;;;;;;57.93;2.67;;;15.50;69.30;;;;;;5055327;28;20473;-74
2021/07/15 01:54:03;;;;;;;58.07;2.60;;;15.50;70.10;;;;;;5055091;28;20581;-73
2021/07/15 01:56:31;;;;;;;58.17;2.80;;;15.50;68.60;;;;;;5055114;28;21086;-73
2021/07/15 01:58:59;;;;;;;58.10;2.77;;;15.50;69.30;;;;;;5055056;28;20458;-73
2021/07/15 02:01:27;;;;;;;58.10;2.70;;;15.50;68.80;;;;;;5054755;28;20870;-74
2021/07/15 02:03:58;;;;;;;57.97;2.50;;;15.50;69.70;;;;;;5054730;28;20557;-74
2021/07/15 02:06:26;;;;;;;58.27;2.67;;;15.50;69.60;;;;;;5055023;28;20885;-73
2021/07/15 02:08:54;;;;;;;58.40;2.50;;;15.50;69.10;;;;;;5054924;28;20449;-73
2021/07/15 02:11:23;;;;;;;58.17;2.70;;;15.50;68.70;;;;;;5054633;28;20480;-73
2021/07/15 02:13:51;;;;;;;58.33;2.70;;;15.50;69.30;;;;;;5054769;28;20568;-73
2021/07/15 02:16:19;;;;;;;58.13;2.50;;;15.60;69.50;;;;;;5054706;28;20966;-73
2021/07/15 02:18:47;;;;;;;58.13;2.47;;;15.50;70.60;;;;;;5054811;28;20456;-73
2021/07/15 02:21:16;;;;;;;58.33;2.80;;;15.60;70.40;;;;;;5054495;28;20498;-73
2021/07/15 02:23:44;;;;;;;58.20;2.50;;;15.60;71.20;;;;;;5054193;28;20989;-73
2021/07/15 02:26:12;;;;;;;58.07;2.60;;;15.60;71.80;;;;;;5054753;28;20877;-73
2021/07/15 02:28:40;;;;;;;58.17;2.47;;;15.60;70.40;;;;;;5054484;28;20541;-73
2021/07/15 02:31:12;;;;;;;58.03;2.40;;;15.60;69.10;;;;;;5054534;28;20536;-74
2021/07/15 02:33:46;;;;;;;58.07;2.70;;;15.60;69.30;;;;;;5054209;28;20568;-73
2021/07/15 02:36:15;;;;;;;58.10;2.50;;;15.60;68.80;;;;;;5054241;28;20475;-73
2021/07/15 02:38:43;;;;;;;58.13;2.70;;;15.70;69.10;;;;;;5054669;28;20544;-73
2021/07/15 02:41:10;;;;;;;58.17;2.40;;;15.70;69.20;;;;;;5054330;28;20456;-73
2021/07/15 02:43:37;;;;;;;58.20;2.40;;;15.70;69.20;;;;;;5053273;28;20935;-73
2021/07/15 02:46:04;;;;;;;58.00;2.70;;;15.70;67.20;;;;;;5054097;28;20972;-73
2021/07/15 02:48:31;;;;;;;58.07;2.37;;;15.70;68.00;;;;;;5054112;28;21009;-73
2021/07/15 02:50:58;;;;;;;57.97;2.33;;;15.70;66.50;;;;;;5053978;28;20450;-73
2021/07/15 02:53:26;;;;;;;58.20;2.30;;;15.70;66.60;;;;;;5053866;28;20569;-73
2021/07/15 02:56:02;;;;;;;58.03;2.50;;;15.70;64.90;;;;;;5054105;28;20532;-73
2021/07/15 02:58:36;;;;;;;58.37;2.40;;;15.70;65.60;;;;;;5053987;28;20448;-73
2021/07/15 03:01:07;;;;;;;58.03;2.37;;;15.70;65.50;;;;;;5054188;28;20457;-73
2021/07/15 03:03:43;;;;;;;57.93;2.40;;;15.70;68.50;;;;;;5053572;28;21025;-73
2021/07/15 03:06:13;;;;;;;58.07;2.30;;;15.70;66.60;;;;;;5053867;28;20999;-73
2021/07/15 03:08:49;;;;;;;58.07;2.33;;;15.70;66.10;;;;;;5053962;28;21024;-73
2021/07/15 03:11:18;;;;;;;57.77;2.30;;;15.70;66.00;;;;;;5053591;28;20476;-73
2021/07/15 03:13:46;;;;;;;58.20;2.33;;;15.70;66.00;;;;;;5053236;28;20568;-73
2021/07/15 03:16:14;;;;;;;57.97;2.30;;;15.70;65.70;;;;;;5053803;28;20537;-73
2021/07/15 03:18:44;;;;;;;57.97;2.43;;;15.60;65.80;;;;;;5053716;28;20814;-73
2021/07/15 03:21:12;;;;;;;58.20;2.40;;;15.60;66.50;;;;;;5053569;28;20548;-73
2021/07/15 03:23:40;;;;;;;58.30;2.57;;;15.70;66.00;;;;;;5053338;28;20536;-73
2021/07/15 03:26:09;;;;;;;57.97;2.40;;;15.60;65.90;;;;;;5053317;28;20545;-73
2021/07/15 03:28:41;;;;;;;57.97;2.40;;;15.70;65.80;;;;;;5053807;28;20489;-73
2021/07/15 03:31:09;;;;;;;58.30;2.50;;;15.70;65.20;;;;;;5053885;28;20897;-73
2021/07/15 03:33:38;;;;;;;57.97;2.30;;;15.60;63.80;;;;;;5053369;28;20481;-73
2021/07/15 03:36:05;;;;;;;58.03;2.37;;;15.60;61.70;;;;;;5053480;28;20456;-73
2021/07/15 03:38:33;;;;;;;58.07;2.33;;;15.60;55.90;;;;;;5053612;28;20989;-73
2021/07/15 03:41:01;;;;;;;58.00;2.37;;;15.50;53.80;;;;;;5053306;28;20455;-73
2021/07/15 03:43:30;;;;;;;57.87;2.30;;;15.50;52.60;;;;;;5052926;28;20446;-73
2021/07/15 03:45:58;;;;;;;58.17;2.37;;;15.50;52.10;;;;;;5053187;28;20537;-73
2021/07/15 03:48:27;;;;;;;58.03;2.30;;;15.50;51.70;;;;;;5052919;28;20444;-73
2021/07/15 03:50:58;;;;;;;58.17;2.33;;;15.50;54.10;;;;;;5052831;28;20453;-73
2021/07/15 03:53:26;;;;;;;58.20;2.70;;;15.60;54.40;;;;;;5052439;28;21025;-73
2021/07/15 03:55:54;;;;;;;58.17;2.50;;;15.60;56.80;;;;;;5052040;28;20872;-73
2021/07/15 03:58:22;;;;;;;58.23;2.60;;;15.70;60.00;;;;;;5052736;28;20449;-73
2021/07/15 04:00:51;;;;;;;58.23;2.50;;;15.70;60.30;;;;;;5052774;28;20455;-73
2021/07/15 04:03:20;;;;;;;57.97;2.30;;;15.70;60.30;;;;;;5052429;28;20550;-73
2021/07/15 04:05:50;;;;;;;58.20;2.30;;;15.70;58.70;;;;;;5052484;28;20997;-73
2021/07/15 04:08:19;;;;;;;58.10;2.40;;;15.70;59.90;;;;;;5052849;28;20453;-73
2021/07/15 04:10:48;;;;;;;57.97;2.30;;;15.70;62.20;;;;;;5052716;28;20449;-73
2021/07/15 04:13:15;;;;;;;58.00;2.37;;;15.80;60.60;;;;;;5052298;28;20551;-73
2021/07/15 04:16:07;;;;;;;58.10;2.40;;;15.80;60.80;;;;;;5052343;28;20503;-73
2021/07/15 04:18:38;;;;;;;57.97;2.40;;;15.80;62.10;;;;;;5052496;28;20445;-73
2021/07/15 04:21:06;;;;;;;58.00;2.27;;;15.80;61.70;;;;;;5052280;28;20495;-73
2021/07/15 04:23:35;;;;;;;58.10;2.40;;;15.90;62.50;;;;;;5052103;28;20528;-73
2021/07/15 04:26:01;;;;;;;57.97;2.50;;;15.90;63.50;;;;;;5052249;28;20544;-73
2021/07/15 04:28:29;;;;;;;58.87;2.77;;;16.00;61.60;;;;;;5052331;28;20537;-73
2021/07/15 04:30:56;;;;;;;57.87;2.57;;;16.00;61.40;;;;;;5052044;28;20457;-73
2021/07/15 04:33:26;;;;;;;58.27;2.40;;;16.00;58.00;;;;;;5052129;28;20548;-73
2021/07/15 04:35:55;;;;;;;58.30;2.53;;;16.00;55.20;;;;;;5052208;28;20491;-73
2021/07/15 04:38:23;;;;;;;58.17;2.40;;;16.10;52.40;;;;;;5052197;28;20544;-73
2021/07/15 04:40:51;;;;;;;57.87;2.60;;;16.00;51.30;;;;;;5052088;28;20450;-73
2021/07/15 04:43:19;;;;;;;57.97;2.50;;;16.00;51.80;;;;;;5051672;28;20472;-73
2021/07/15 04:45:49;;;;;;;58.30;2.60;;;16.00;52.70;;;;;;5052137;28;20465;-73
2021/07/15 04:48:18;;;;;;;57.77;2.40;;;16.00;54.00;;;;;;5052126;28;20457;-73
2021/07/15 04:50:47;;;;;;;58.37;2.50;;;16.00;56.30;;;;;;5052065;28;20454;-73
2021/07/15 04:53:19;;;;;;;58.17;2.50;;;16.00;58.60;;;;;;5051397;28;20839;-73
2021/07/15 04:55:47;;;;;;;58.30;3.17;;;15.90;55.40;;;;;;5051657;28;20526;-73
2021/07/15 04:58:16;;;;;;;58.30;2.50;;;15.90;59.90;;;;;;5052020;28;20555;-73
2021/07/15 05:00:43;;;;;;;57.87;2.43;;;15.90;62.60;;;;;;5051943;28;20449;-73
2021/07/15 05:03:26;;;;;;;57.87;2.43;;;15.90;62.00;;;;;;5051312;28;20465;-73
2021/07/15 05:05:54;;;;;;;57.97;2.50;;;15.90;63.50;;;;;;5051811;28;20436;-72
2021/07/15 05:08:21;;;;;;;58.07;2.30;;;15.90;64.40;;;;;;5051334;28;20489;-73
2021/07/15 05:10:48;;;;;;;58.03;2.40;;;16.00;64.20;;;;;;5051877;28;20492;-73
2021/07/15 05:13:15;;;;;;;57.77;2.40;;;16.00;63.90;;;;;;5051423;28;20450;-73
2021/07/15 05:15:42;;;;;;;57.97;2.47;;;16.10;63.80;;;;;;5051538;28;20496;-73
2021/07/15 05:18:09;;;;;;;57.93;2.50;;;16.10;62.60;;;;;;5051758;28;20537;-73
2021/07/15 05:20:35;;;;;;;58.17;2.37;;;16.10;61.10;;;;;;5051412;28;20446;-73
2021/07/15 05:23:04;;;;;;;57.93;2.60;;;16.20;57.70;;;;;;5051418;28;20499;-73
2021/07/15 05:25:31;;;;;;;58.17;2.50;;;16.20;57.30;;;;;;5051687;28;20485;-73
2021/07/15 05:27:57;;;;;;;58.17;2.60;;;16.30;56.90;;;;;;5051665;28;20446;-73
2021/07/15 05:30:24;;;;;;;57.77;2.30;;;16.30;54.90;;;;;;5051605;28;20543;-73
2021/07/15 05:32:51;;;;;;;58.37;2.63;;;16.30;51.00;;;;;;5051317;28;20546;-73
2021/07/15 05:35:18;;;;;;;57.97;2.50;;;16.30;47.50;;;;;;5051195;28;20508;-73
2021/07/15 05:37:45;;;;;;;57.73;2.50;;;16.30;44.80;;;;;;5051561;28;20541;-73
2021/07/15 05:40:14;;;;;;;58.03;2.40;;;16.30;42.60;;;;;;5051424;28;21038;-73
2021/07/15 05:42:41;;;;;;;57.53;2.43;;;16.30;38.00;;;;;;5051050;28;20934;-73
2021/07/15 05:45:08;;;;;;;57.57;2.40;;;16.30;36.40;;;;;;5051287;28;20494;-73
2021/07/15 05:47:35;;;;;;;58.13;2.70;;;16.30;35.90;;;;;;5051272;28;20536;-73
2021/07/15 05:50:03;;;;;;;58.10;2.40;;;16.30;36.40;;;;;;5051298;28;20540;-73
2021/07/15 05:52:29;;;;;;;57.87;2.33;;;16.40;38.30;;;;;;5051206;28;20481;-73
2021/07/15 05:54:58;;;;;;;58.00;2.33;;;16.40;35.50;;;;;;5051282;28;20577;-73
2021/07/15 05:57:27;;;;;;;57.77;2.50;;;16.40;34.10;;;;;;5051203;28;20942;-73
2021/07/15 05:59:54;;;;;;;57.87;2.50;;;16.40;33.20;;;;;;5051372;28;20647;-73
2021/07/15 06:02:21;;;;;;;58.07;2.40;;;16.40;33.60;;;;;;5050837;28;20549;-73
2021/07/15 06:04:48;;;;;;;57.97;2.37;;;16.40;31.90;;;;;;5050954;28;20484;-73
2021/07/15 06:07:14;;;;;;;57.60;2.30;;;16.40;29.90;;;;;;5051208;28;20454;-73
2021/07/15 06:09:41;;;;;;;58.10;2.40;;;16.50;30.10;;;;;;5050907;28;20978;-73
2021/07/15 06:12:08;;;;;;;58.07;2.30;;;16.50;30.70;;;;;;5050823;28;20454;-73
2021/07/15 06:14:37;;;;;;;58.00;2.40;;;16.60;30.30;;;;;;5050872;28;20524;-73
2021/07/15 06:17:04;;;;;;;57.97;2.30;;;16.60;29.00;;;;;;5050935;28;20489;-73
2021/07/15 06:19:31;;;;;;;58.03;2.40;;;16.60;24.80;;;;;;5052881;28;20454;-73
2021/07/15 06:21:58;;;;;;;58.10;2.50;;;16.60;21.00;;;;;;5054468;28;20465;-73
2021/07/15 06:24:25;;;;;;;58.10;2.40;;;16.60;20.60;;;;;;5054513;28;20985;-73
2021/07/15 06:26:52;;;;;;;57.73;2.50;;;16.60;20.50;;;;;;5054647;28;20450;-73
2021/07/15 06:29:19;;;;;;;58.10;2.50;;;16.60;21.20;;;;;;5054263;28;20546;-73
2021/07/15 06:31:47;;;;;;;57.87;2.50;;;16.70;21.50;;;;;;5054185;28;20482;-73
2021/07/15 06:34:14;;;;;;;58.10;2.53;;;16.70;21.30;;;;;;5054482;28;20547;-73
2021/07/15 06:36:45;;;;;;;57.87;2.40;;;16.80;21.10;;;;;;5054463;28;20533;-73
2021/07/15 06:39:12;;;;;;;57.97;2.50;;;16.80;17.30;;;;;;5054354;28;21010;-73
2021/07/15 06:41:39;;;;;;;57.77;2.40;;;16.90;15.20;;;;;;5053983;28;20541;-72
2021/07/15 06:44:09;;;;;;;57.93;2.33;;;17.00;16.40;;;;;;5054188;28;20501;-73
2021/07/15 06:46:38;;;;;;;57.87;2.30;;;17.20;15.90;;;;;;5057533;28;20454;-73
2021/07/15 06:49:06;;;;;;;57.83;2.30;;;17.30;11.30;;;;;;5071646;28;20461;-73
2021/07/15 06:51:34;;;;;;;57.83;2.60;;;17.40;5.80;;;;;;5073857;28;20453;-73
2021/07/15 06:54:01;;;;;;;57.87;2.50;;;17.50;1.00;;;;;;5073929;28;20553;-74
2021/07/15 06:56:28;;;;;;;57.67;2.40;;;17.60;1.00;;;;;;5073224;28;20577;-73
2021/07/15 06:58:55;;;;;;;57.67;2.40;;;17.60;1.00;;;;;;5073449;28;20541;-73
2021/07/15 07:01:22;;;;;;;57.87;2.20;;;17.60;1.00;;;;;;5074041;28;20450;-73
2021/07/15 07:03:49;;;;;;;57.77;2.30;;;17.60;1.00;;;;;;5073595;28;20509;-73
2021/07/15 07:06:18;;;;;;;57.77;2.40;;;17.60;1.00;;;;;;5073700;28;20534;-73
2021/07/15 07:08:44;;;;;;;58.00;2.30;;;17.60;1.00;;;;;;5073867;28;20541;-73
2021/07/15 07:11:11;;;;;;;57.90;2.23;;;17.60;1.00;;;;;;5073424;28;20892;-73
2021/07/15 07:13:38;;;;;;;58.43;2.77;;;17.60;1.00;;;;;;5073390;28;20533;-73
2021/07/15 07:16:05;;;;;;;57.73;2.40;;;17.60;1.00;;;;;;5073457;28;21100;-73
2021/07/15 07:18:32;;;;;;;57.87;2.30;;;17.70;1.00;;;;;;5073515;28;20455;-73
2021/07/15 07:21:00;;;;;;;58.40;2.70;;;17.90;1.00;;;;;;5071187;28;20472;-74
2021/07/15 07:23:28;;;;;;;58.00;2.20;;;18.00;1.00;;;;;;5056583;28;20452;-73
2021/07/15 07:25:55;;;;;;;58.17;2.40;;;18.20;1.00;;;;;;5053635;28;20483;-73
2021/07/15 07:28:22;;;;;;;57.97;2.20;;;18.40;1.00;;;;;;5053384;28;20797;-73
2021/07/15 07:30:49;;;;;;;57.87;2.37;;;18.50;1.00;;;;;;5052981;28;20456;-73
2021/07/15 07:33:16;;;;;;;58.07;2.50;;;18.60;1.00;;;;;;5053031;28;20555;-73
2021/07/15 07:35:43;;;;;;;58.10;2.30;;;18.70;1.00;;;;;;5052934;28;21010;-73
2021/07/15 07:38:10;;;;;;;57.67;2.30;;;18.70;1.00;;;;;;5053029;28;20490;-73
2021/07/15 07:40:38;;;;;;;57.77;2.20;;;18.70;1.00;;;;;;5053318;28;20460;-73
2021/07/15 07:43:06;;;;;;;57.90;2.33;;;18.70;1.00;;;;;;5052780;28;20543;-73
2021/07/15 07:45:33;;;;;;;57.83;2.40;;;18.70;1.00;;;;;;5053015;28;20552;-73
2021/07/15 07:48:01;;;;;;;58.10;2.40;;;18.80;1.00;;;;;;5068861;28;20490;-71
2021/07/15 07:50:28;;;;;;;57.90;2.30;;;18.90;1.00;;;;;;5072967;28;20576;-72
2021/07/15 07:52:57;;;;;;;58.00;2.40;;;19.10;1.00;;;;;;5072421;28;20482;-72
2021/07/15 07:55:24;;;;;;;57.63;2.37;;;19.30;1.00;;;;;;5072748;28;20748;-72
2021/07/15 07:57:53;;;;;;;57.97;2.37;;;19.50;1.00;;;;;;5051889;28;21003;-72
2021/07/15 08:00:21;;;;;;;58.20;2.50;;;19.70;1.00;;;;;;5052861;28;20570;-72
2021/07/15 08:02:48;;;;;;;57.67;2.20;;;19.90;1.00;;;;;;5052367;28;20461;-72
2021/07/15 08:05:20;;;;;;;57.87;2.50;;;20.00;1.00;;;;;;5052408;28;20551;-73
2021/07/15 08:07:47;;;;;;;58.00;2.30;;;20.00;1.00;;;;;;5052866;28;20457;-72
2021/07/15 08:10:15;;;;;;;57.67;2.20;;;19.80;1.00;;;;;;5052945;28;20455;-73
2021/07/15 08:12:41;;;;;;;57.87;2.20;;;19.80;1.00;;;;;;5052204;28;20539;-72
2021/07/15 08:15:11;;;;;;;57.77;2.30;;;19.80;1.00;;;;;;5052435;28;20522;-72
2021/07/15 08:17:39;;;;;;;58.03;2.20;;;19.70;1.00;;;;;;5052406;28;20453;-71
2021/07/15 08:20:09;;;;;;;58.10;2.50;;;19.70;1.00;;;;;;5052549;28;20821;-72
2021/07/15 08:22:36;;;;;;;58.13;2.20;;;19.70;1.00;;;;;;5052252;28;20471;-72
2021/07/15 08:25:04;;;;;;;58.00;2.30;;;19.60;1.00;;;;;;5052178;28;20976;-72
2021/07/15 08:27:31;;;;;;;57.80;2.20;;;19.50;1.00;;;;;;5060177;28;20450;-72
2021/07/15 08:29:58;;;;;;;57.97;2.40;;;19.40;1.00;;;;;;5071965;28;20454;-72
2021/07/15 08:32:26;;;;;;;57.87;2.40;;;19.40;1.00;;;;;;5071683;28;20487;-72
2021/07/15 08:34:53;;;;;;;57.80;2.20;;;19.30;1.00;;;;;;5071961;28;20471;-72
2021/07/15 08:37:20;;;;;;;58.10;2.20;;;19.20;1.00;;;;;;5072294;28;20452;-72
2021/07/15 08:39:47;;;;;;;58.10;2.23;;;19.20;1.00;;;;;;5072113;28;20550;-72
2021/07/15 08:42:14;;;;;;;58.10;2.50;;;19.20;1.00;;;;;;5071181;28;20952;-72
2021/07/15 08:44:41;;;;;;;57.77;2.40;;;19.20;1.00;;;;;;5071956;28;20841;-72
2021/07/15 08:47:09;;;;;;;58.07;2.23;;;19.30;1.00;;;;;;5071630;28;20447;-71
2021/07/15 08:49:39;;;;;;;58.03;2.50;;;19.30;1.00;;;;;;5071878;28;20532;-72
2021/07/15 08:52:06;;;;;;;58.10;2.40;;;19.30;1.00;;;;;;5071572;28;20446;-72
2021/07/15 08:54:47;;;;;;;57.83;2.20;;;19.40;1.00;;;;;;5071706;28;20543;-71
2021/07/15 08:57:13;;;;;;;57.87;2.30;;;19.50;1.00;;;;;;5071499;28;20862;-72
2021/07/15 08:59:40;;;;;;;58.10;2.40;;;19.50;1.00;;;;;;5052471;28;20448;-72
2021/07/15 09:02:07;;;;;;;58.23;2.50;;;19.50;1.00;;;;;;5071452;28;20486;-72
2021/07/15 09:04:34;;;;;;;57.73;2.30;;;19.50;1.00;;;;;;5071595;28;20897;-73
2021/07/15 09:07:03;;;;;;;57.47;2.20;;;19.50;1.00;;;;;;5071647;28;21003;-72
2021/07/15 09:09:30;;;;;;;58.03;2.40;;;19.60;1.00;;;;;;5071738;28;20548;-72
2021/07/15 09:11:57;;;;;;;58.00;2.40;;;19.60;1.00;;;;;;5071680;28;20867;-72
2021/07/15 09:14:23;;;;;;;57.80;2.23;;;19.60;1.00;;;;;;5071565;28;20563;-72
2021/07/15 09:16:51;;;;;;;57.63;2.30;;;19.70;1.00;;;;;;5071503;28;21082;-72
2021/07/15 09:19:20;;;;;;;57.87;2.30;;;19.80;1.00;;;;;;5071748;28;20543;-72
2021/07/15 09:21:47;;;;;;;57.67;2.20;;;19.80;1.00;;;;;;5071337;28;20440;-72
2021/07/15 09:24:30;;;;;;;57.57;2.50;;;19.90;1.00;;;;;;5071479;28;20503;-72
2021/07/15 09:26:58;;;;;;;57.80;2.20;;;20.00;1.00;;;;;;5071794;28;20965;-72
2021/07/15 09:29:25;;;;;;;57.50;2.13;;;20.00;1.00;;;;;;5059997;28;20449;-72
2021/07/15 09:31:53;;;;;;;57.77;2.07;;;20.10;1.00;;;;;;5063592;28;20537;-72
2021/07/15 09:34:20;;;;;;;58.23;2.30;;;20.20;1.00;;;;;;5071453;28;20472;-72
2021/07/15 09:36:48;;;;;;;57.57;2.17;;;20.40;1.00;;;;;;5071342;28;20486;-72
2021/07/15 09:39:19;;;;;;;57.90;2.20;;;20.60;1.00;;;;;;5071267;28;20463;-73
2021/07/15 09:42:11;;;;;;;57.13;2.10;;;20.90;1.00;;;;;;5071282;28;20444;-72
2021/07/15 09:44:39;;;;;;;57.70;2.37;;;21.20;1.00;;;;;;5071415;28;20501;-72
2021/07/15 09:47:06;;;;;;;57.83;2.33;;;21.40;1.00;;;;;;5071295;28;20448;-72
2021/07/15 09:49:34;;;;;;;57.87;2.20;;;21.70;1.00;;;;;;5071142;28;20967;-72
2021/07/15 09:52:01;;;;;;;57.97;2.40;;;21.90;1.00;;;;;;5071057;28;21030;-72
2021/07/15 09:54:29;;;;;;;57.87;2.20;;;22.10;1.00;;;;;;5073193;28;20509;-72
2021/07/15 09:56:56;;;;;;;57.70;2.30;;;22.10;1.00;;;;;;5075109;28;20494;-72
2021/07/15 09:59:24;;;;;;;57.77;2.30;;;22.10;1.00;;;;;;5073723;28;20996;-71
2021/07/15 10:01:52;;;;;;;57.77;2.37;;;22.20;1.00;;;;;;5069501;28;20621;-72
2021/07/15 10:04:23;;;;;;;58.03;2.40;;;22.30;1.00;;;;;;5054744;28;20523;-71
2021/07/15 10:06:51;;;;;;;57.67;2.23;;;22.50;1.00;;;;;;5055091;28;20450;-71
2021/07/15 10:09:26;;;;;;;57.27;2.30;;;22.70;1.00;;;;;;5054845;28;21052;-72
2021/07/15 10:11:56;;;;;;;57.47;2.07;;;22.90;1.00;;;;;;5055043;28;20530;-72
2021/07/15 10:14:36;;;;;;;57.67;2.40;;;23.20;1.00;;;;;;5054612;28;20476;-72
2021/07/15 10:17:03;;;;;;;58.10;2.10;;;23.60;1.00;;;;;;5054730;28;20556;-71
2021/07/15 10:19:29;;;;;;;57.70;2.10;;;24.20;1.00;;;;;;5054921;28;20502;-73
2021/07/15 10:21:58;;;;;;;57.97;2.00;;;24.70;1.00;;;;;;5054437;28;20539;-73
2021/07/15 10:24:25;;;;;;;57.80;2.20;;;25.20;1.00;;;;;;5054574;28;20469;-73
2021/07/15 10:26:55;;;;;;;57.73;2.00;;;25.70;1.00;;;;;;5054542;28;20446;-72
2021/07/15 10:29:22;;;;;;;57.57;2.10;;;26.20;1.00;;;;;;5054651;28;20515;-72
2021/07/15 10:31:52;;;;;;;57.37;1.80;;;27.00;1.00;;;;;;5067756;28;20454;-73
2021/07/15 10:34:19;;;;;;;57.80;1.93;;;27.30;1.00;;;;;;5074331;28;20483;-73
2021/07/15 10:36:46;;;;;;;57.80;1.90;;;27.70;1.00;;;;;;5074327;28;20482;-72
2021/07/15 10:39:15;;;;;;;57.57;2.00;;;28.00;1.00;;;;;;5074366;28;20474;-72
2021/07/15 10:41:44;;;;;;;57.63;1.93;;;28.00;1.00;;;;;;5073801;28;20995;-72
2021/07/15 10:44:11;;;;;;;57.40;2.03;;;27.70;1.00;;;;;;5074336;28;20467;-72
2021/07/15 10:46:39;;;;;;;57.60;1.90;;;27.30;1.00;;;;;;5074348;28;20444;-72
2021/07/15 10:49:09;;;;;;;57.73;2.03;;;26.80;1.00;;;;;;5074162;28;20467;-72
2021/07/15 10:51:37;;;;;;;57.60;1.90;;;26.30;1.00;;;;;;5074007;28;20563;-73
2021/07/15 10:54:05;;;;;;;57.90;2.00;;;25.80;1.00;;;;;;5073766;28;20560;-72
2021/07/15 10:56:33;;;;;;;57.93;2.00;;;25.40;1.00;;;;;;5074124;28;20495;-72
2021/07/15 10:59:01;;;;;;;58.00;2.03;;;25.10;1.00;;;;;;5074082;28;20450;-72
2021/07/15 11:01:42;;;;;;;57.77;2.10;;;24.90;1.00;;;;;;5072072;28;20458;-72
2021/07/15 11:04:13;;;;;;;57.67;2.10;;;24.80;1.00;;;;;;5073191;28;20566;-73
2021/07/15 11:06:42;;;;;;;57.67;2.10;;;24.90;1.00;;;;;;5073562;28;20537;-73
2021/07/15 11:09:12;;;;;;;57.80;2.00;;;25.20;1.00;;;;;;5073719;28;20448;-73
2021/07/15 11:11:41;;;;;;;57.57;2.03;;;25.40;1.00;;;;;;5073398;28;20970;-73
2021/07/15 11:14:36;;;;;;;57.37;2.03;;;25.70;1.00;;;;;;5073645;28;20478;-72
2021/07/15 11:17:04;;;;;;;57.87;2.10;;;26.00;1.00;;;;;;5073426;28;20878;-73
2021/07/15 11:20:05;;;;;;;56.90;1.90;;;26.00;1.00;;;;;;5073836;28;20487;-72
2021/07/15 11:22:51;;;;;;;57.67;2.00;;;26.00;1.00;;;;;;5073369;28;20874;-72
2021/07/15 11:25:31;;;;;;;57.60;2.00;;;26.10;1.00;;;;;;5073858;28;20465;-72
2021/07/15 11:28:00;;;;;;;57.73;2.20;;;26.30;1.00;;;;;;5073651;28;20444;-72
2021/07/15 11:30:44;;;;;;;57.47;1.90;;;26.30;1.00;;;;;;5073375;28;20913;-72
2021/07/15 11:33:30;;;;;;;57.30;1.90;;;26.20;1.00;;;;;;5061663;28;20560;-72
2021/07/15 11:36:03;;;;;;;57.50;2.20;;;26.00;1.00;;;;;;5066957;28;20544;-73
2021/07/15 11:38:33;;;;;;;57.67;2.07;;;25.90;1.00;;;;;;5073117;28;20452;-73
2021/07/15 11:41:04;;;;;;;57.47;1.80;;;25.60;1.00;;;;;;5071994;28;20444;-71
2021/07/15 11:43:33;;;;;;;57.60;1.90;;;25.30;1.00;;;;;;5072919;28;20444;-71
2021/07/15 11:46:18;;;;;;;57.77;2.00;;;25.00;1.00;;;;;;5072768;28;20454;-73
2021/07/15 11:48:58;;;;;;;57.57;2.10;;;25.00;1.00;;;;;;5071633;28;20450;-72
2021/07/15 11:51:48;;;;;;;57.77;2.20;;;25.00;1.00;;;;;;5071536;28;20504;-72
2021/07/15 11:54:20;;;;;;;57.57;2.00;;;25.20;1.00;;;;;;5072818;28;20506;-72
2021/07/15 11:56:49;;;;;;;57.87;2.33;;;25.10;1.00;;;;;;5072288;28;20479;-72
2021/07/15 11:59:41;;;;;;;57.57;2.07;;;24.90;1.00;;;;;;5072492;28;20742;-72
2021/07/15 12:02:11;;;;;;;57.47;2.10;;;24.90;1.00;;;;;;5072198;28;20632;-72
2021/07/15 12:05:13;;;;;;;57.87;2.03;;;24.70;1.00;;;;;;5070934;28;20475;-72
2021/07/15 12:07:45;;;;;;;57.00;2.10;;;24.50;1.00;;;;;;5072357;28;20962;-72
2021/07/15 12:10:17;;;;;;;57.77;2.13;;;24.10;1.00;;;;;;5072778;28;20813;-72
2021/07/15 12:12:44;;;;;;;57.77;2.20;;;24.00;1.00;;;;;;5072340;28;20810;-72
2021/07/15 12:15:20;;;;;;;58.00;2.13;;;24.00;1.00;;;;;;5072205;28;21051;-72
2021/07/15 12:17:52;;;;;;;57.53;2.10;;;24.10;1.00;;;;;;5071744;28;20837;-72
2021/07/15 12:20:21;;;;;;;57.73;2.30;;;24.30;1.00;;;;;;5072323;28;20443;-72
2021/07/15 12:22:57;;;;;;;57.67;2.20;;;24.40;1.00;;;;;;5072113;28;20451;-72
2021/07/15 12:25:29;;;;;;;57.83;2.50;;;24.60;1.00;;;;;;5072167;28;20474;-73
2021/07/15 12:27:59;;;;;;;59.03;3.20;;;24.70;1.00;;;;;;5071988;28;20446;-73
2021/07/15 12:30:39;;;;;;;58.77;3.40;;;24.70;1.00;;;;;;5072385;28;20478;-73
2021/07/15 12:33:06;;;;;;;57.43;2.30;;;24.80;1.00;;;;;;5072106;28;20533;-73
2021/07/15 12:35:35;;;;;;;57.53;2.10;;;25.10;1.00;;;;;;5070750;28;20554;-73
2021/07/15 12:38:27;;;;;;;57.33;1.80;;;25.40;1.00;;;;;;5071874;28;20483;-73
2021/07/15 12:41:11;;;;;;;57.33;1.97;;;25.60;1.00;;;;;;5071925;28;20962;-73
2021/07/15 12:43:44;;;;;;;57.80;1.90;;;25.50;1.00;;;;;;5071682;28;21026;-73
2021/07/15 12:46:13;;;;;;;57.37;2.10;;;25.40;1.00;;;;;;5072052;28;20542;-73
2021/07/15 12:48:42;;;;;;;57.67;1.93;;;25.40;1.00;;;;;;5071800;28;20443;-73
2021/07/15 12:51:09;;;;;;;57.17;2.00;;;25.40;1.00;;;;;;5072229;28;20451;-73
2021/07/15 12:53:42;;;;;;;57.37;2.00;;;25.60;1.00;;;;;;5071782;28;20871;-73